sensor_id;sensor_type;location;lat;lon;timestamp;P1;durP1;ratioP1;P2;durP2;ratioP2
24161;SDS011;12318;51.262;7.066;2023-03-03T00:02:23;121.72;;;60.42;;
24161;SDS011;12318;51.262;7.066;2023-03-03T00:04:49;122.78;;;64.53;;
24161;SDS011;12318;51.262;7.066;2023-03-03T00:07:15;122.57;;;63.47;;
24161;SDS011;12318;51.262;7.066;2023-03-03T00:09:47;128.27;;;63.85;;
24161;SDS011;12318;51.262;7.066;2023-03-03T00:12:26;118.18;;;61.63;;
24161;SDS011;12318;51.262;7.066;2023-03-03T00:14:54;134.77;;;64.50;;
24161;SDS011;12318;51.262;7.066;2023-03-03T00:17:24;135.75;;;67.03;;
24161;SDS011;12318;51.262;7.066;2023-03-03T00:19:51;140.52;;;66.80;;
24161;SDS011;12318;51.262;7.066;2023-03-03T00:22:38;138.50;;;66.15;;
24161;SDS011;12318;51.262;7.066;2023-03-03T00:27:55;127.07;;;64.47;;
24161;SDS011;12318;51.262;7.066;2023-03-03T00:30:26;138.33;;;64.40;;
24161;SDS011;12318;51.262;7.066;2023-03-03T00:32:52;139.23;;;63.35;;
24161;SDS011;12318;51.262;7.066;2023-03-03T00:35:28;132.60;;;64.07;;
24161;SDS011;12318;51.262;7.066;2023-03-03T00:38:01;135.48;;;64.15;;
24161;SDS011;12318;51.262;7.066;2023-03-03T00:40:38;137.07;;;64.53;;
24161;SDS011;12318;51.262;7.066;2023-03-03T00:43:22;142.98;;;69.55;;
24161;SDS011;12318;51.262;7.066;2023-03-03T00:45:58;143.27;;;68.03;;
24161;SDS011;12318;51.262;7.066;2023-03-03T00:48:28;160.32;;;67.47;;
24161;SDS011;12318;51.262;7.066;2023-03-03T00:50:59;164.07;;;72.85;;
24161;SDS011;12318;51.262;7.066;2023-03-03T00:53:29;164.25;;;73.60;;
24161;SDS011;12318;51.262;7.066;2023-03-03T00:55:55;166.32;;;71.50;;
24161;SDS011;12318;51.262;7.066;2023-03-03T00:58:22;181.57;;;73.82;;
24161;SDS011;12318;51.262;7.066;2023-03-03T01:00:49;165.00;;;75.85;;
24161;SDS011;12318;51.262;7.066;2023-03-03T01:03:18;157.73;;;63.03;;
24161;SDS011;12318;51.262;7.066;2023-03-03T01:05:46;176.98;;;70.82;;
24161;SDS011;12318;51.262;7.066;2023-03-03T01:08:13;186.82;;;78.32;;
24161;SDS011;12318;51.262;7.066;2023-03-03T01:10:41;172.02;;;70.30;;
24161;SDS011;12318;51.262;7.066;2023-03-03T01:13:14;170.38;;;72.75;;
24161;SDS011;12318;51.262;7.066;2023-03-03T01:15:41;169.00;;;71.32;;
24161;SDS011;12318;51.262;7.066;2023-03-03T01:18:10;169.48;;;72.68;;
24161;SDS011;12318;51.262;7.066;2023-03-03T01:20:37;178.50;;;68.68;;
24161;SDS011;12318;51.262;7.066;2023-03-03T01:23:03;202.30;;;80.18;;
24161;SDS011;12318;51.262;7.066;2023-03-03T01:25:29;203.82;;;78.80;;
24161;SDS011;12318;51.262;7.066;2023-03-03T01:27:55;184.60;;;74.35;;
24161;SDS011;12318;51.262;7.066;2023-03-03T01:30:22;177.32;;;70.47;;
24161;SDS011;12318;51.262;7.066;2023-03-03T01:32:48;181.55;;;69.93;;
24161;SDS011;12318;51.262;7.066;2023-03-03T01:35:13;178.63;;;69.68;;
24161;SDS011;12318;51.262;7.066;2023-03-03T01:37:39;200.95;;;78.93;;
24161;SDS011;12318;51.262;7.066;2023-03-03T01:40:06;187.23;;;71.13;;
24161;SDS011;12318;51.262;7.066;2023-03-03T01:42:37;184.90;;;71.00;;
24161;SDS011;12318;51.262;7.066;2023-03-03T01:47:39;246.27;;;84.90;;
24161;SDS011;12318;51.262;7.066;2023-03-03T01:50:49;225.23;;;81.43;;
24161;SDS011;12318;51.262;7.066;2023-03-03T01:53:27;188.45;;;73.47;;
24161;SDS011;12318;51.262;7.066;2023-03-03T01:55:55;170.90;;;69.88;;
24161;SDS011;12318;51.262;7.066;2023-03-03T01:58:29;215.95;;;78.15;;
24161;SDS011;12318;51.262;7.066;2023-03-03T02:00:58;209.60;;;72.07;;
24161;SDS011;12318;51.262;7.066;2023-03-03T02:03:27;199.63;;;70.70;;
24161;SDS011;12318;51.262;7.066;2023-03-03T02:05:55;192.15;;;65.70;;
24161;SDS011;12318;51.262;7.066;2023-03-03T02:08:38;195.02;;;71.25;;
24161;SDS011;12318;51.262;7.066;2023-03-03T02:11:14;181.68;;;68.38;;
24161;SDS011;12318;51.262;7.066;2023-03-03T02:13:40;183.50;;;66.88;;
24161;SDS011;12318;51.262;7.066;2023-03-03T02:16:06;247.20;;;76.32;;
24161;SDS011;12318;51.262;7.066;2023-03-03T02:18:32;219.82;;;69.40;;
24161;SDS011;12318;51.262;7.066;2023-03-03T02:28:57;232.30;;;67.70;;
24161;SDS011;12318;51.262;7.066;2023-03-03T02:31:24;250.90;;;79.28;;
24161;SDS011;12318;51.262;7.066;2023-03-03T02:33:52;249.23;;;78.97;;
24161;SDS011;12318;51.262;7.066;2023-03-03T02:36:20;241.07;;;76.47;;
24161;SDS011;12318;51.262;7.066;2023-03-03T02:41:54;262.70;;;76.85;;
24161;SDS011;12318;51.262;7.066;2023-03-03T02:44:41;244.90;;;77.78;;
24161;SDS011;12318;51.262;7.066;2023-03-03T02:47:07;296.92;;;86.88;;
24161;SDS011;12318;51.262;7.066;2023-03-03T02:49:33;264.13;;;81.68;;
24161;SDS011;12318;51.262;7.066;2023-03-03T02:52:01;243.85;;;76.50;;
24161;SDS011;12318;51.262;7.066;2023-03-03T02:54:29;265.52;;;80.47;;
24161;SDS011;12318;51.262;7.066;2023-03-03T02:56:56;233.95;;;79.07;;
24161;SDS011;12318;51.262;7.066;2023-03-03T02:59:23;231.48;;;78.35;;
24161;SDS011;12318;51.262;7.066;2023-03-03T03:01:49;222.00;;;71.03;;
24161;SDS011;12318;51.262;7.066;2023-03-03T03:04:16;172.27;;;64.28;;
24161;SDS011;12318;51.262;7.066;2023-03-03T03:06:43;204.13;;;70.55;;
24161;SDS011;12318;51.262;7.066;2023-03-03T03:09:11;169.27;;;65.10;;
24161;SDS011;12318;51.262;7.066;2023-03-03T03:11:37;189.10;;;63.03;;
24161;SDS011;12318;51.262;7.066;2023-03-03T03:14:04;219.00;;;70.78;;
24161;SDS011;12318;51.262;7.066;2023-03-03T03:16:31;223.25;;;67.80;;
24161;SDS011;12318;51.262;7.066;2023-03-03T03:18:58;177.13;;;65.18;;
24161;SDS011;12318;51.262;7.066;2023-03-03T03:21:24;219.27;;;67.28;;
24161;SDS011;12318;51.262;7.066;2023-03-03T03:23:53;248.88;;;73.07;;
24161;SDS011;12318;51.262;7.066;2023-03-03T03:26:18;188.57;;;65.78;;
24161;SDS011;12318;51.262;7.066;2023-03-03T03:28:48;200.15;;;69.88;;
24161;SDS011;12318;51.262;7.066;2023-03-03T03:31:14;235.38;;;73.20;;
24161;SDS011;12318;51.262;7.066;2023-03-03T03:33:41;189.07;;;67.65;;
24161;SDS011;12318;51.262;7.066;2023-03-03T03:36:07;150.18;;;60.88;;
24161;SDS011;12318;51.262;7.066;2023-03-03T03:38:34;190.85;;;68.97;;
24161;SDS011;12318;51.262;7.066;2023-03-03T03:41:01;194.60;;;68.35;;
24161;SDS011;12318;51.262;7.066;2023-03-03T03:43:27;206.35;;;70.13;;
24161;SDS011;12318;51.262;7.066;2023-03-03T03:45:53;154.32;;;61.45;;
24161;SDS011;12318;51.262;7.066;2023-03-03T03:48:19;132.05;;;56.45;;
24161;SDS011;12318;51.262;7.066;2023-03-03T03:50:46;121.05;;;55.30;;
24161;SDS011;12318;51.262;7.066;2023-03-03T03:53:12;164.85;;;59.55;;
24161;SDS011;12318;51.262;7.066;2023-03-03T03:55:38;142.02;;;55.63;;
24161;SDS011;12318;51.262;7.066;2023-03-03T03:58:04;152.95;;;54.80;;
24161;SDS011;12318;51.262;7.066;2023-03-03T04:00:30;139.77;;;53.75;;
24161;SDS011;12318;51.262;7.066;2023-03-03T04:02:56;171.73;;;57.03;;
24161;SDS011;12318;51.262;7.066;2023-03-03T04:05:22;199.23;;;63.60;;
24161;SDS011;12318;51.262;7.066;2023-03-03T04:07:48;192.52;;;58.15;;
24161;SDS011;12318;51.262;7.066;2023-03-03T04:10:14;213.60;;;61.92;;
24161;SDS011;12318;51.262;7.066;2023-03-03T04:12:41;196.90;;;57.28;;
24161;SDS011;12318;51.262;7.066;2023-03-03T04:15:12;233.13;;;66.07;;
24161;SDS011;12318;51.262;7.066;2023-03-03T04:17:39;212.80;;;60.35;;
24161;SDS011;12318;51.262;7.066;2023-03-03T04:20:06;190.80;;;60.05;;
24161;SDS011;12318;51.262;7.066;2023-03-03T04:22:35;209.23;;;64.55;;
24161;SDS011;12318;51.262;7.066;2023-03-03T04:25:02;204.02;;;64.15;;
24161;SDS011;12318;51.262;7.066;2023-03-03T04:27:32;189.27;;;57.45;;
24161;SDS011;12318;51.262;7.066;2023-03-03T04:29:58;200.52;;;59.92;;
24161;SDS011;12318;51.262;7.066;2023-03-03T04:32:25;184.40;;;56.28;;
24161;SDS011;12318;51.262;7.066;2023-03-03T04:34:52;238.20;;;66.70;;
24161;SDS011;12318;51.262;7.066;2023-03-03T04:37:18;225.77;;;68.95;;
24161;SDS011;12318;51.262;7.066;2023-03-03T04:39:44;205.75;;;62.78;;
24161;SDS011;12318;51.262;7.066;2023-03-03T04:42:10;239.73;;;71.03;;
24161;SDS011;12318;51.262;7.066;2023-03-03T04:44:36;209.75;;;67.07;;
24161;SDS011;12318;51.262;7.066;2023-03-03T04:47:24;199.85;;;61.78;;
24161;SDS011;12318;51.262;7.066;2023-03-03T04:49:51;223.55;;;69.82;;
24161;SDS011;12318;51.262;7.066;2023-03-03T04:52:17;233.02;;;70.15;;
24161;SDS011;12318;51.262;7.066;2023-03-03T04:54:43;200.75;;;62.45;;
24161;SDS011;12318;51.262;7.066;2023-03-03T04:57:09;217.27;;;65.40;;
24161;SDS011;12318;51.262;7.066;2023-03-03T04:59:35;159.77;;;59.30;;
24161;SDS011;12318;51.262;7.066;2023-03-03T05:02:00;209.50;;;66.20;;
24161;SDS011;12318;51.262;7.066;2023-03-03T05:04:28;177.60;;;63.60;;
24161;SDS011;12318;51.262;7.066;2023-03-03T05:06:54;180.68;;;63.03;;
24161;SDS011;12318;51.262;7.066;2023-03-03T05:09:21;175.30;;;60.03;;
24161;SDS011;12318;51.262;7.066;2023-03-03T05:11:47;232.85;;;66.40;;
24161;SDS011;12318;51.262;7.066;2023-03-03T05:14:13;166.02;;;61.22;;
24161;SDS011;12318;51.262;7.066;2023-03-03T05:16:39;210.52;;;61.65;;
24161;SDS011;12318;51.262;7.066;2023-03-03T05:19:04;165.10;;;57.33;;
24161;SDS011;12318;51.262;7.066;2023-03-03T05:21:30;196.70;;;60.53;;
24161;SDS011;12318;51.262;7.066;2023-03-03T05:23:56;189.90;;;58.92;;
24161;SDS011;12318;51.262;7.066;2023-03-03T05:26:21;183.73;;;59.67;;
24161;SDS011;12318;51.262;7.066;2023-03-03T05:28:47;197.07;;;61.88;;
24161;SDS011;12318;51.262;7.066;2023-03-03T05:31:13;178.57;;;58.08;;
24161;SDS011;12318;51.262;7.066;2023-03-03T05:33:39;199.00;;;59.85;;
24161;SDS011;12318;51.262;7.066;2023-03-03T05:36:04;173.68;;;56.70;;
24161;SDS011;12318;51.262;7.066;2023-03-03T05:38:33;180.18;;;57.65;;
24161;SDS011;12318;51.262;7.066;2023-03-03T05:40:59;174.85;;;57.15;;
24161;SDS011;12318;51.262;7.066;2023-03-03T05:43:24;189.55;;;59.20;;
24161;SDS011;12318;51.262;7.066;2023-03-03T05:45:56;166.88;;;59.25;;
24161;SDS011;12318;51.262;7.066;2023-03-03T05:48:23;166.93;;;55.85;;
24161;SDS011;12318;51.262;7.066;2023-03-03T05:50:49;151.55;;;52.53;;
24161;SDS011;12318;51.262;7.066;2023-03-03T05:53:14;172.23;;;53.72;;
24161;SDS011;12318;51.262;7.066;2023-03-03T05:55:40;154.52;;;54.75;;
24161;SDS011;12318;51.262;7.066;2023-03-03T05:58:06;145.43;;;51.83;;
24161;SDS011;12318;51.262;7.066;2023-03-03T06:00:32;152.88;;;53.35;;
24161;SDS011;12318;51.262;7.066;2023-03-03T06:03:00;144.35;;;52.55;;
24161;SDS011;12318;51.262;7.066;2023-03-03T06:05:26;194.68;;;58.35;;
24161;SDS011;12318;51.262;7.066;2023-03-03T06:07:52;153.60;;;53.33;;
24161;SDS011;12318;51.262;7.066;2023-03-03T06:10:18;149.80;;;52.45;;
24161;SDS011;12318;51.262;7.066;2023-03-03T06:12:43;172.93;;;56.17;;
24161;SDS011;12318;51.262;7.066;2023-03-03T06:15:09;166.75;;;55.13;;
24161;SDS011;12318;51.262;7.066;2023-03-03T06:17:36;153.60;;;51.95;;
24161;SDS011;12318;51.262;7.066;2023-03-03T06:20:01;147.05;;;53.20;;
24161;SDS011;12318;51.262;7.066;2023-03-03T06:22:30;173.70;;;54.60;;
24161;SDS011;12318;51.262;7.066;2023-03-03T06:24:56;149.25;;;45.40;;
24161;SDS011;12318;51.262;7.066;2023-03-03T06:27:22;144.80;;;51.88;;
24161;SDS011;12318;51.262;7.066;2023-03-03T06:29:48;138.85;;;50.35;;
24161;SDS011;12318;51.262;7.066;2023-03-03T06:32:14;124.60;;;48.13;;
24161;SDS011;12318;51.262;7.066;2023-03-03T06:34:40;129.07;;;48.20;;
24161;SDS011;12318;51.262;7.066;2023-03-03T06:37:06;119.40;;;44.13;;
24161;SDS011;12318;51.262;7.066;2023-03-03T06:39:31;126.53;;;47.72;;
24161;SDS011;12318;51.262;7.066;2023-03-03T06:41:57;128.82;;;46.17;;
24161;SDS011;12318;51.262;7.066;2023-03-03T06:44:23;119.22;;;43.72;;
24161;SDS011;12318;51.262;7.066;2023-03-03T06:46:49;131.35;;;47.20;;
24161;SDS011;12318;51.262;7.066;2023-03-03T06:49:15;95.10;;;31.85;;
24161;SDS011;12318;51.262;7.066;2023-03-03T06:51:40;129.48;;;46.42;;
24161;SDS011;12318;51.262;7.066;2023-03-03T06:54:11;94.93;;;33.53;;
24161;SDS011;12318;51.262;7.066;2023-03-03T06:56:39;119.18;;;45.25;;
24161;SDS011;12318;51.262;7.066;2023-03-03T06:59:24;138.00;;;49.25;;
24161;SDS011;12318;51.262;7.066;2023-03-03T07:01:51;130.40;;;47.08;;
24161;SDS011;12318;51.262;7.066;2023-03-03T07:07:17;115.43;;;44.45;;
24161;SDS011;12318;51.262;7.066;2023-03-03T07:09:47;112.57;;;42.75;;
24161;SDS011;12318;51.262;7.066;2023-03-03T07:12:22;118.97;;;42.55;;
24161;SDS011;12318;51.262;7.066;2023-03-03T07:14:55;107.60;;;40.83;;
24161;SDS011;12318;51.262;7.066;2023-03-03T07:17:26;104.03;;;36.60;;
24161;SDS011;12318;51.262;7.066;2023-03-03T07:19:51;113.32;;;43.47;;
24161;SDS011;12318;51.262;7.066;2023-03-03T07:22:22;106.50;;;40.17;;
24161;SDS011;12318;51.262;7.066;2023-03-03T07:24:56;114.45;;;41.58;;
24161;SDS011;12318;51.262;7.066;2023-03-03T07:27:46;96.22;;;37.67;;
24161;SDS011;12318;51.262;7.066;2023-03-03T07:32:51;76.43;;;30.63;;
24161;SDS011;12318;51.262;7.066;2023-03-03T07:37:55;98.30;;;38.20;;
24161;SDS011;12318;51.262;7.066;2023-03-03T07:40:37;98.40;;;36.90;;
24161;SDS011;12318;51.262;7.066;2023-03-03T07:43:22;77.03;;;29.23;;
24161;SDS011;12318;51.262;7.066;2023-03-03T07:46:35;91.53;;;33.70;;
24161;SDS011;12318;51.262;7.066;2023-03-03T07:48:47;94.03;;;37.33;;
24161;SDS011;12318;51.262;7.066;2023-03-03T07:51:21;85.05;;;34.97;;
24161;SDS011;12318;51.262;7.066;2023-03-03T07:53:54;94.13;;;36.47;;
24161;SDS011;12318;51.262;7.066;2023-03-03T07:56:41;94.47;;;34.50;;
24161;SDS011;12318;51.262;7.066;2023-03-03T07:59:19;88.53;;;35.13;;
24161;SDS011;12318;51.262;7.066;2023-03-03T08:01:49;88.10;;;35.63;;
24161;SDS011;12318;51.262;7.066;2023-03-03T08:04:36;88.88;;;34.85;;
24161;SDS011;12318;51.262;7.066;2023-03-03T08:07:10;95.05;;;36.13;;
24161;SDS011;12318;51.262;7.066;2023-03-03T08:14:54;93.35;;;37.15;;
24161;SDS011;12318;51.262;7.066;2023-03-03T08:17:23;91.57;;;34.65;;
24161;SDS011;12318;51.262;7.066;2023-03-03T08:19:52;89.85;;;36.45;;
24161;SDS011;12318;51.262;7.066;2023-03-03T08:22:33;90.60;;;36.15;;
24161;SDS011;12318;51.262;7.066;2023-03-03T08:25:00;96.15;;;36.45;;
24161;SDS011;12318;51.262;7.066;2023-03-03T08:27:26;104.97;;;39.17;;
24161;SDS011;12318;51.262;7.066;2023-03-03T08:29:59;90.70;;;36.22;;
24161;SDS011;12318;51.262;7.066;2023-03-03T08:35:10;90.70;;;36.63;;
24161;SDS011;12318;51.262;7.066;2023-03-03T08:37:35;92.15;;;40.00;;
24161;SDS011;12318;51.262;7.066;2023-03-03T08:40:01;91.07;;;38.42;;
24161;SDS011;12318;51.262;7.066;2023-03-03T08:45:44;92.82;;;39.13;;
24161;SDS011;12318;51.262;7.066;2023-03-03T08:48:34;100.70;;;40.60;;
24161;SDS011;12318;51.262;7.066;2023-03-03T08:51:30;96.22;;;39.47;;
24161;SDS011;12318;51.262;7.066;2023-03-03T08:54:06;90.32;;;37.42;;
24161;SDS011;12318;51.262;7.066;2023-03-03T08:56:40;86.22;;;34.92;;
24161;SDS011;12318;51.262;7.066;2023-03-03T08:59:10;88.20;;;36.53;;
24161;SDS011;12318;51.262;7.066;2023-03-03T09:01:37;95.15;;;40.22;;
24161;SDS011;12318;51.262;7.066;2023-03-03T09:04:04;88.97;;;33.67;;
24161;SDS011;12318;51.262;7.066;2023-03-03T09:06:30;97.65;;;39.35;;
24161;SDS011;12318;51.262;7.066;2023-03-03T09:09:04;88.97;;;39.15;;
24161;SDS011;12318;51.262;7.066;2023-03-03T09:14:12;94.93;;;41.25;;
24161;SDS011;12318;51.262;7.066;2023-03-03T09:16:41;92.13;;;38.30;;
24161;SDS011;12318;51.262;7.066;2023-03-03T09:21:58;74.97;;;34.03;;
24161;SDS011;12318;51.262;7.066;2023-03-03T09:24:38;77.18;;;34.58;;
24161;SDS011;12318;51.262;7.066;2023-03-03T09:27:11;86.53;;;36.67;;
24161;SDS011;12318;51.262;7.066;2023-03-03T09:30:02;80.90;;;36.92;;
24161;SDS011;12318;51.262;7.066;2023-03-03T09:33:37;81.13;;;37.00;;
24161;SDS011;12318;51.262;7.066;2023-03-03T09:38:30;77.60;;;35.85;;
24161;SDS011;12318;51.262;7.066;2023-03-03T09:52:51;83.05;;;35.25;;
24161;SDS011;12318;51.262;7.066;2023-03-03T10:06:32;88.97;;;36.10;;
24161;SDS011;12318;51.262;7.066;2023-03-03T10:20:52;97.13;;;40.53;;
24161;SDS011;12318;51.262;7.066;2023-03-03T10:23:37;97.32;;;40.45;;
24161;SDS011;12318;51.262;7.066;2023-03-03T10:26:37;101.38;;;42.20;;
24161;SDS011;12318;51.262;7.066;2023-03-03T10:32:11;91.55;;;40.13;;
24161;SDS011;12318;51.262;7.066;2023-03-03T10:40:33;100.80;;;43.65;;
24161;SDS011;12318;51.262;7.066;2023-03-03T10:43:10;100.85;;;41.85;;
24161;SDS011;12318;51.262;7.066;2023-03-03T10:46:00;94.00;;;42.47;;
24161;SDS011;12318;51.262;7.066;2023-03-03T10:48:41;97.18;;;42.33;;
24161;SDS011;12318;51.262;7.066;2023-03-03T10:51:43;84.43;;;37.45;;
24161;SDS011;12318;51.262;7.066;2023-03-03T10:54:31;92.03;;;39.78;;
24161;SDS011;12318;51.262;7.066;2023-03-03T10:57:28;102.90;;;42.92;;
24161;SDS011;12318;51.262;7.066;2023-03-03T11:03:11;89.43;;;37.78;;
24161;SDS011;12318;51.262;7.066;2023-03-03T11:05:50;99.75;;;41.55;;
24161;SDS011;12318;51.262;7.066;2023-03-03T11:08:37;73.55;;;31.95;;
24161;SDS011;12318;51.262;7.066;2023-03-03T11:33:33;67.20;;;31.73;;
24161;SDS011;12318;51.262;7.066;2023-03-03T11:36:17;74.45;;;33.85;;
24161;SDS011;12318;51.262;7.066;2023-03-03T11:39:04;87.13;;;37.08;;
24161;SDS011;12318;51.262;7.066;2023-03-03T11:41:38;98.20;;;40.85;;
24161;SDS011;12318;51.262;7.066;2023-03-03T11:44:21;86.65;;;38.45;;
24161;SDS011;12318;51.262;7.066;2023-03-03T11:47:20;87.35;;;37.90;;
24161;SDS011;12318;51.262;7.066;2023-03-03T11:50:02;96.72;;;39.70;;
24161;SDS011;12318;51.262;7.066;2023-03-03T11:52:54;92.18;;;38.17;;
24161;SDS011;12318;51.262;7.066;2023-03-03T11:55:40;89.78;;;39.20;;
24161;SDS011;12318;51.262;7.066;2023-03-03T11:58:22;91.90;;;37.85;;
24161;SDS011;12318;51.262;7.066;2023-03-03T12:01:17;88.07;;;37.38;;
24161;SDS011;12318;51.262;7.066;2023-03-03T12:04:21;87.80;;;38.88;;
24161;SDS011;12318;51.262;7.066;2023-03-03T12:15:22;147.80;;;69.38;;
24161;SDS011;12318;51.262;7.066;2023-03-03T12:18:19;92.95;;;40.08;;
24161;SDS011;12318;51.262;7.066;2023-03-03T12:36:09;63.13;;;27.92;;
24161;SDS011;12318;51.262;7.066;2023-03-03T12:41:59;62.10;;;27.63;;
24161;SDS011;12318;51.262;7.066;2023-03-03T12:53:08;59.33;;;26.88;;
24161;SDS011;12318;51.262;7.066;2023-03-03T13:13:00;76.40;;;32.55;;
24161;SDS011;12318;51.262;7.066;2023-03-03T13:15:32;74.80;;;30.92;;
24161;SDS011;12318;51.262;7.066;2023-03-03T13:23:47;69.35;;;29.55;;
24161;SDS011;12318;51.262;7.066;2023-03-03T13:26:26;72.97;;;34.65;;
24161;SDS011;12318;51.262;7.066;2023-03-03T13:34:55;61.75;;;27.15;;
24161;SDS011;12318;51.262;7.066;2023-03-03T13:40:16;77.15;;;34.83;;
24161;SDS011;12318;51.262;7.066;2023-03-03T13:48:21;65.50;;;28.40;;
24161;SDS011;12318;51.262;7.066;2023-03-03T13:56:34;63.38;;;27.20;;
24161;SDS011;12318;51.262;7.066;2023-03-03T13:59:47;69.13;;;29.23;;
24161;SDS011;12318;51.262;7.066;2023-03-03T14:02:49;61.85;;;25.08;;
24161;SDS011;12318;51.262;7.066;2023-03-03T14:10:41;68.30;;;27.38;;
24161;SDS011;12318;51.262;7.066;2023-03-03T14:13:24;63.10;;;26.30;;
24161;SDS011;12318;51.262;7.066;2023-03-03T14:15:57;61.17;;;25.75;;
24161;SDS011;12318;51.262;7.066;2023-03-03T14:18:35;63.97;;;26.92;;
24161;SDS011;12318;51.262;7.066;2023-03-03T14:21:18;71.22;;;28.08;;
24161;SDS011;12318;51.262;7.066;2023-03-03T14:26:28;69.53;;;28.67;;
24161;SDS011;12318;51.262;7.066;2023-03-03T14:29:18;70.20;;;29.90;;
24161;SDS011;12318;51.262;7.066;2023-03-03T14:34:58;71.82;;;28.70;;
24161;SDS011;12318;51.262;7.066;2023-03-03T14:37:43;67.53;;;29.17;;
24161;SDS011;12318;51.262;7.066;2023-03-03T14:40:21;63.80;;;28.02;;
24161;SDS011;12318;51.262;7.066;2023-03-03T14:42:58;65.65;;;26.92;;
24161;SDS011;12318;51.262;7.066;2023-03-03T14:48:05;64.43;;;29.27;;
24161;SDS011;12318;51.262;7.066;2023-03-03T14:50:38;66.28;;;27.92;;
24161;SDS011;12318;51.262;7.066;2023-03-03T14:56:32;76.93;;;34.25;;
24161;SDS011;12318;51.262;7.066;2023-03-03T15:01:56;73.57;;;33.53;;
24161;SDS011;12318;51.262;7.066;2023-03-03T15:04:40;71.32;;;31.95;;
24161;SDS011;12318;51.262;7.066;2023-03-03T15:10:05;65.93;;;30.15;;
24161;SDS011;12318;51.262;7.066;2023-03-03T15:15:16;64.10;;;30.90;;
24161;SDS011;12318;51.262;7.066;2023-03-03T15:20:33;74.00;;;32.97;;
24161;SDS011;12318;51.262;7.066;2023-03-03T15:37:18;75.20;;;36.25;;
24161;SDS011;12318;51.262;7.066;2023-03-03T15:46:39;83.55;;;40.22;;
24161;SDS011;12318;51.262;7.066;2023-03-03T15:52:03;82.28;;;36.90;;
24161;SDS011;12318;51.262;7.066;2023-03-03T15:58:00;76.38;;;37.50;;
24161;SDS011;12318;51.262;7.066;2023-03-03T16:03:42;71.97;;;34.70;;
24161;SDS011;12318;51.262;7.066;2023-03-03T16:06:26;75.35;;;34.60;;
24161;SDS011;12318;51.262;7.066;2023-03-03T16:09:18;77.93;;;38.28;;
24161;SDS011;12318;51.262;7.066;2023-03-03T16:18:34;70.93;;;33.03;;
24161;SDS011;12318;51.262;7.066;2023-03-03T16:29:12;61.83;;;30.52;;
24161;SDS011;12318;51.262;7.066;2023-03-03T16:31:59;66.60;;;31.30;;
24161;SDS011;12318;51.262;7.066;2023-03-03T16:37:29;61.45;;;29.95;;
24161;SDS011;12318;51.262;7.066;2023-03-03T16:40:14;67.53;;;33.58;;
24161;SDS011;12318;51.262;7.066;2023-03-03T16:43:05;60.20;;;29.80;;
24161;SDS011;12318;51.262;7.066;2023-03-03T16:45:43;62.63;;;30.92;;
24161;SDS011;12318;51.262;7.066;2023-03-03T16:51:37;58.40;;;29.55;;
24161;SDS011;12318;51.262;7.066;2023-03-03T16:54:14;52.30;;;25.52;;
24161;SDS011;12318;51.262;7.066;2023-03-03T16:57:02;57.97;;;27.50;;
24161;SDS011;12318;51.262;7.066;2023-03-03T17:02:37;59.42;;;29.20;;
24161;SDS011;12318;51.262;7.066;2023-03-03T17:22:13;66.28;;;33.28;;
24161;SDS011;12318;51.262;7.066;2023-03-03T18:01:18;72.70;;;35.10;;
24161;SDS011;12318;51.262;7.066;2023-03-03T18:21:35;75.97;;;35.60;;
24161;SDS011;12318;51.262;7.066;2023-03-03T18:32:44;75.38;;;39.30;;
24161;SDS011;12318;51.262;7.066;2023-03-03T18:35:40;79.03;;;39.15;;
24161;SDS011;12318;51.262;7.066;2023-03-03T18:40:55;75.05;;;35.72;;
24161;SDS011;12318;51.262;7.066;2023-03-03T18:46:43;72.30;;;34.75;;
24161;SDS011;12318;51.262;7.066;2023-03-03T18:49:03;75.22;;;35.63;;
24161;SDS011;12318;51.262;7.066;2023-03-03T18:54:00;75.03;;;34.72;;
24161;SDS011;12318;51.262;7.066;2023-03-03T19:02:11;83.47;;;39.33;;
24161;SDS011;12318;51.262;7.066;2023-03-03T19:04:47;88.82;;;41.25;;
24161;SDS011;12318;51.262;7.066;2023-03-03T19:07:27;77.75;;;37.22;;
24161;SDS011;12318;51.262;7.066;2023-03-03T19:17:57;82.47;;;39.95;;
24161;SDS011;12318;51.262;7.066;2023-03-03T19:20:35;81.53;;;41.28;;
24161;SDS011;12318;51.262;7.066;2023-03-03T19:23:19;241.32;;;124.22;;
24161;SDS011;12318;51.262;7.066;2023-03-03T19:34:46;92.63;;;40.80;;
24161;SDS011;12318;51.262;7.066;2023-03-03T19:37:30;112.35;;;51.95;;
24161;SDS011;12318;51.262;7.066;2023-03-03T19:54:02;99.38;;;44.53;;
24161;SDS011;12318;51.262;7.066;2023-03-03T19:56:51;89.68;;;42.38;;
24161;SDS011;12318;51.262;7.066;2023-03-03T20:21:16;89.28;;;43.88;;
24161;SDS011;12318;51.262;7.066;2023-03-03T20:26:41;95.28;;;42.78;;
24161;SDS011;12318;51.262;7.066;2023-03-03T20:37:49;87.72;;;42.80;;
24161;SDS011;12318;51.262;7.066;2023-03-03T20:45:54;97.32;;;44.63;;
24161;SDS011;12318;51.262;7.066;2023-03-03T20:54:06;100.82;;;43.25;;
24161;SDS011;12318;51.262;7.066;2023-03-03T20:59:26;99.90;;;44.67;;
24161;SDS011;12318;51.262;7.066;2023-03-03T21:02:36;103.60;;;45.35;;
24161;SDS011;12318;51.262;7.066;2023-03-03T21:07:52;100.03;;;44.65;;
24161;SDS011;12318;51.262;7.066;2023-03-03T21:10:35;101.72;;;45.25;;
24161;SDS011;12318;51.262;7.066;2023-03-03T21:15:58;97.82;;;44.88;;
24161;SDS011;12318;51.262;7.066;2023-03-03T21:18:27;87.78;;;41.28;;
24161;SDS011;12318;51.262;7.066;2023-03-03T21:20:53;88.93;;;41.15;;
24161;SDS011;12318;51.262;7.066;2023-03-03T21:23:19;97.45;;;43.95;;
24161;SDS011;12318;51.262;7.066;2023-03-03T21:28:17;86.25;;;40.10;;
24161;SDS011;12318;51.262;7.066;2023-03-03T21:39:20;100.65;;;46.42;;
24161;SDS011;12318;51.262;7.066;2023-03-03T21:41:54;94.03;;;43.30;;
24161;SDS011;12318;51.262;7.066;2023-03-03T21:44:41;87.28;;;42.38;;
24161;SDS011;12318;51.262;7.066;2023-03-03T21:47:09;89.38;;;43.08;;
24161;SDS011;12318;51.262;7.066;2023-03-03T21:49:39;86.60;;;38.85;;
24161;SDS011;12318;51.262;7.066;2023-03-03T21:52:06;88.78;;;39.53;;
24161;SDS011;12318;51.262;7.066;2023-03-03T21:54:32;91.60;;;41.65;;
24161;SDS011;12318;51.262;7.066;2023-03-03T21:56:58;84.05;;;40.63;;
24161;SDS011;12318;51.262;7.066;2023-03-03T21:59:24;83.68;;;39.55;;
24161;SDS011;12318;51.262;7.066;2023-03-03T22:01:50;77.13;;;35.10;;
24161;SDS011;12318;51.262;7.066;2023-03-03T22:04:15;76.82;;;37.40;;
24161;SDS011;12318;51.262;7.066;2023-03-03T22:06:41;79.10;;;36.40;;
24161;SDS011;12318;51.262;7.066;2023-03-03T22:09:07;77.13;;;36.20;;
24161;SDS011;12318;51.262;7.066;2023-03-03T22:11:33;87.32;;;37.22;;
24161;SDS011;12318;51.262;7.066;2023-03-03T22:14:00;81.85;;;37.85;;
24161;SDS011;12318;51.262;7.066;2023-03-03T22:16:25;82.65;;;38.00;;
24161;SDS011;12318;51.262;7.066;2023-03-03T22:18:51;85.97;;;39.70;;
24161;SDS011;12318;51.262;7.066;2023-03-03T22:21:17;74.97;;;34.78;;
24161;SDS011;12318;51.262;7.066;2023-03-03T22:23:43;82.65;;;38.47;;
24161;SDS011;12318;51.262;7.066;2023-03-03T22:26:09;80.60;;;38.15;;
24161;SDS011;12318;51.262;7.066;2023-03-03T22:28:35;83.88;;;38.33;;
24161;SDS011;12318;51.262;7.066;2023-03-03T22:31:01;84.60;;;38.63;;